Luhovicy, Russia
Current Conditions -  °F | °C
As of 8:00 PM on Friday 31 Oct 2014 (Local Time) from UUDD Reporting Station
Broken Clouds Broken Clouds  
Wind Chill: 30°   Ceiling: 1800
Heat Index: 34°   Visibility: 5mi
Dew Point: 30°   Wind: 4mph
Humidity: 87%   Direction: 360°N
Pressure: 30.12"   Gusts: NA
Location:  54.97°N, 39.04°E
Report Text: UUDD 311700Z 36002MPS 310V120 8000 BKN018 01/M01 Q1020 3201009582010095 NOSIG
Loading
Personal Weather Stations






























Interactive Weather Map
Tropical Storm Tracking
New forecast layout! Learn more

10-Day Weather Forecast

Advertisements
Track Severe Weather on mobile